createdAt,value
2019-02-16T00:02:26.735Z,101750.65
2019-02-16T00:04:55.151Z,101748.80
2019-02-16T00:07:23.591Z,101741.48
2019-02-16T00:09:52.011Z,101747.44
2019-02-16T00:12:20.427Z,101745.80
2019-02-16T00:14:48.931Z,101744.44
2019-02-16T00:17:17.355Z,101739.33
2019-02-16T00:19:45.765Z,101737.12
2019-02-16T00:22:14.190Z,101733.52
2019-02-16T00:24:42.672Z,101736.11
2019-02-16T00:27:11.083Z,101742.66
2019-02-16T00:29:39.506Z,101738.43
2019-02-16T00:32:07.951Z,101745.75
2019-02-16T00:34:36.368Z,101739.05
2019-02-16T00:37:04.816Z,101740.81
2019-02-16T00:39:33.251Z,101738.56
2019-02-16T00:42:01.675Z,101736.19
2019-02-16T00:44:30.411Z,101740.81
2019-02-16T00:46:58.760Z,101736.19
2019-02-16T00:49:27.193Z,101742.39
2019-02-16T00:51:55.682Z,101738.78
2019-02-16T00:54:24.143Z,101741.03
2019-02-16T00:56:52.542Z,101742.88
2019-02-16T00:59:20.951Z,101736.93
2019-02-16T01:01:49.392Z,101739.31
2019-02-16T01:04:17.828Z,101736.44
2019-02-16T01:06:46.235Z,101739.17
2019-02-16T01:09:14.751Z,101738.55
2019-02-16T01:11:43.161Z,101734.06
2019-02-16T01:14:11.591Z,101736.80
2019-02-16T01:16:40.015Z,101743.62
2019-02-16T01:19:08.455Z,101733.58
2019-02-16T01:21:36.868Z,101738.16
2019-02-16T01:24:05.303Z,101738.91
2019-02-16T01:26:33.720Z,101741.01
2019-02-16T01:29:02.150Z,101733.58
2019-02-16T01:31:30.577Z,101733.58
2019-02-16T01:33:59.014Z,101724.02
2019-02-16T01:36:27.419Z,101721.78
2019-02-16T01:38:55.872Z,101724.51
2019-02-16T01:41:24.270Z,101727.10
2019-02-16T01:43:52.705Z,101722.38
2019-02-16T01:46:21.179Z,101724.23
2019-02-16T01:48:49.604Z,101731.59
2019-02-16T01:51:18.146Z,101733.30
2019-02-16T01:53:46.557Z,101732.81
2019-02-16T01:56:14.990Z,101738.28
2019-02-16T01:58:43.406Z,101739.64
2019-02-16T02:01:11.857Z,101737.89
2019-02-16T02:03:40.270Z,101735.55
2019-02-16T02:06:08.718Z,101738.55
2019-02-16T02:08:37.136Z,101737.05
2019-02-16T02:11:06.071Z,101737.53
2019-02-16T02:13:34.488Z,101732.95
2019-02-16T02:16:03.189Z,101739.78
2019-02-16T02:18:31.609Z,101735.16
2019-02-16T02:21:00.044Z,101735.02
2019-02-16T02:23:28.482Z,101728.58
2019-02-16T02:25:56.895Z,101728.33
2019-02-16T02:28:25.334Z,101726.61
2019-02-16T02:30:53.746Z,101728.58
2019-02-16T02:33:22.200Z,101730.44
2019-02-16T02:35:50.584Z,101723.26
2019-02-16T02:38:18.996Z,101726.20
2019-02-16T02:40:47.416Z,101725.47
2019-02-16T02:43:15.834Z,101723.12
2019-02-16T02:45:44.366Z,101716.78
2019-02-16T02:48:12.779Z,101714.67
2019-02-16T02:50:41.190Z,101719.78
2019-02-16T02:53:09.614Z,101716.04
2019-02-16T02:55:38.020Z,101716.17
2019-02-16T02:58:06.466Z,101710.72
2019-02-16T03:00:34.972Z,101716.70
2019-02-16T03:03:03.412Z,101711.45
2019-02-16T03:05:31.820Z,101715.41
2019-02-16T03:08:00.239Z,101712.95
2019-02-16T03:10:28.650Z,101714.67
2019-02-16T03:12:57.082Z,101714.05
2019-02-16T03:15:25.517Z,101704.28
2019-02-16T03:17:53.935Z,101709.22
2019-02-16T03:20:30.277Z,101708.09
2019-02-16T03:23:18.430Z,101716.56
2019-02-16T03:25:52.728Z,101718.42
2019-02-16T03:28:29.943Z,101718.42
2019-02-16T03:31:16.404Z,101724.38
2019-02-16T03:33:50.971Z,101730.22
2019-02-16T03:36:22.451Z,101717.81
2019-02-16T03:38:56.894Z,101721.03
2019-02-16T03:41:25.302Z,101718.30
2019-02-16T03:43:53.750Z,101717.81
2019-02-16T03:46:22.186Z,101713.86
2019-02-16T03:48:50.590Z,101715.22
2019-02-16T03:51:19.041Z,101718.17
2019-02-16T03:53:47.491Z,101718.30
2019-02-16T03:56:15.925Z,101723.53
2019-02-16T03:58:44.360Z,101723.14
2019-02-16T04:01:12.762Z,101723.53
2019-02-16T04:03:41.211Z,101721.78
2019-02-16T04:06:09.631Z,101720.80
2019-02-16T04:08:38.071Z,101727.63
2019-02-16T04:11:06.470Z,101732.95
2019-02-16T04:13:34.923Z,101739.26
2019-02-16T04:16:03.366Z,101743.35
2019-02-16T04:18:31.748Z,101749.91
2019-02-16T04:21:00.165Z,101750.57
2019-02-16T04:23:28.594Z,101742.37
2019-02-16T04:25:57.027Z,101741.50
2019-02-16T04:28:25.447Z,101735.16
2019-02-16T04:30:53.880Z,101742.37
2019-02-16T04:33:22.291Z,101738.28
2019-02-16T04:35:50.745Z,101743.73
2019-02-16T04:38:19.186Z,101740.00
2019-02-16T04:40:47.594Z,101743.22
2019-02-16T04:43:16.113Z,101745.95
2019-02-16T04:45:44.548Z,101731.45
2019-02-16T04:48:12.960Z,101727.70
2019-02-16T04:50:41.379Z,101724.97
2019-02-16T04:53:09.787Z,101721.63
2019-02-16T04:55:38.222Z,101723.83
2019-02-16T04:58:06.635Z,101722.59
2019-02-16T05:00:35.083Z,101714.92
2019-02-16T05:03:03.507Z,101718.50
2019-02-16T05:05:31.951Z,101724.84
2019-02-16T05:08:00.355Z,101719.59
2019-02-16T05:10:28.771Z,101718.89
2019-02-16T05:12:57.191Z,101714.79
2019-02-16T05:15:25.606Z,101707.30
2019-02-16T05:17:54.043Z,101714.79
2019-02-16T05:20:22.454Z,101718.50
2019-02-16T05:22:50.882Z,101712.55
2019-02-16T05:25:19.283Z,101706.59
2019-02-16T05:27:47.829Z,101712.06
2019-02-16T05:30:16.234Z,101707.96
2019-02-16T05:32:44.642Z,101707.44
2019-02-16T05:35:13.166Z,101716.16
2019-02-16T05:37:41.593Z,101712.06
2019-02-16T05:40:10.162Z,101712.41
2019-02-16T05:42:38.564Z,101714.79
2019-02-16T05:45:07.555Z,101712.06
2019-02-16T05:47:35.956Z,101711.53
2019-02-16T05:50:04.731Z,101714.79
2019-02-16T05:52:33.145Z,101725.33
2019-02-16T05:55:01.579Z,101724.21
2019-02-16T05:57:29.973Z,101720.12
2019-02-16T05:59:58.403Z,101728.45
2019-02-16T06:02:26.807Z,101726.42
2019-02-16T06:04:55.250Z,101721.48
2019-02-16T06:07:23.687Z,101723.34
2019-02-16T06:09:52.113Z,101720.61
2019-02-16T06:12:20.541Z,101725.19
2019-02-16T06:14:48.977Z,101727.44
2019-02-16T06:17:17.423Z,101728.31
2019-02-16T06:19:45.850Z,101730.16
2019-02-16T06:22:14.267Z,101731.53
2019-02-16T06:24:42.693Z,101734.75
2019-02-16T06:27:11.099Z,101732.02
2019-02-16T06:29:39.535Z,101741.86
2019-02-16T06:32:07.969Z,101741.45
2019-02-16T06:34:36.404Z,101740.95
2019-02-16T06:37:06.489Z,101741.09
2019-02-16T06:39:34.929Z,101744.59
2019-02-16T06:42:03.352Z,101746.91
2019-02-16T06:44:31.804Z,101748.80
2019-02-16T06:47:00.236Z,101754.16
2019-02-16T06:49:28.632Z,101752.66
2019-02-16T06:51:57.074Z,101750.90
2019-02-16T06:54:25.499Z,101749.15
2019-02-16T06:57:01.321Z,101760.98
2019-02-16T06:59:29.762Z,101757.83
2019-02-16T07:01:58.159Z,101760.56
2019-02-16T07:04:26.607Z,101770.13
2019-02-16T07:06:55.019Z,101770.13
2019-02-16T07:09:23.435Z,101763.81
2019-02-16T07:11:51.861Z,101773.27
2019-02-16T07:14:20.313Z,101773.63
2019-02-16T07:17:02.372Z,101772.13
2019-02-16T07:19:32.459Z,101769.39
2019-02-16T07:22:00.907Z,101770.49
2019-02-16T07:24:29.305Z,101774.10
2019-02-16T07:26:57.767Z,101766.88
2019-02-16T07:29:26.255Z,101769.48
2019-02-16T07:31:54.703Z,101773.48
2019-02-16T07:34:23.157Z,101775.55
2019-02-16T07:36:51.573Z,101778.39
2019-02-16T07:39:19.989Z,101782.63
2019-02-16T07:41:48.431Z,101783.12
2019-02-16T07:44:33.124Z,101781.61
2019-02-16T07:47:03.196Z,101777.52
2019-02-16T07:49:33.244Z,101780.11
2019-02-16T07:52:03.316Z,101780.47
2019-02-16T07:54:36.341Z,101786.67
2019-02-16T07:57:06.407Z,101784.56
2019-02-16T07:59:45.148Z,101788.31
2019-02-16T08:02:18.222Z,101786.06
2019-02-16T08:05:06.454Z,101784.08
2019-02-16T08:07:39.448Z,101777.73
2019-02-16T08:10:18.350Z,101785.94
2019-02-16T08:13:03.591Z,101793.02
2019-02-16T08:15:33.662Z,101798.34
2019-02-16T08:18:06.147Z,101794.24
2019-02-16T08:20:41.940Z,101784.68
2019-02-16T08:23:30.113Z,101780.58
2019-02-16T08:26:05.635Z,101786.05
2019-02-16T08:28:41.236Z,101782.58
2019-02-16T08:31:11.313Z,101784.30
2019-02-16T08:33:44.132Z,101782.44
2019-02-16T08:36:31.457Z,101785.03
2019-02-16T08:39:16.663Z,101785.03
2019-02-16T08:41:58.563Z,101768.64
2019-02-16T08:44:34.686Z,101772.39
2019-02-16T08:47:21.296Z,101771.73
2019-02-16T08:50:09.365Z,101776.56
2019-02-16T08:52:45.372Z,101771.84
2019-02-16T08:55:15.407Z,101776.08
2019-02-16T08:57:48.144Z,101775.69
2019-02-16T09:00:24.367Z,101775.69
2019-02-16T09:03:00.248Z,101778.28
2019-02-16T09:05:32.887Z,101776.29
2019-02-16T09:08:15.065Z,101778.63
2019-02-16T09:10:51.141Z,101770.16
2019-02-16T09:13:21.217Z,101771.98
2019-02-16T09:15:51.293Z,101765.29
2019-02-16T09:18:33.610Z,101762.68
2019-02-16T09:21:15.435Z,101762.44
2019-02-16T09:23:59.146Z,101758.09
2019-02-16T09:26:35.206Z,101762.67
2019-02-16T09:29:05.290Z,101757.42
2019-02-16T09:31:44.104Z,101753.28
2019-02-16T09:34:26.454Z,101759.59
2019-02-16T09:36:56.521Z,101751.16
2019-02-16T09:39:42.795Z,101756.98
2019-02-16T09:42:21.099Z,101753.91
2019-02-16T09:44:50.405Z,101754.27
2019-02-16T09:47:19.645Z,101758.84
2019-02-16T09:49:48.926Z,101752.17
2019-02-16T09:52:20.921Z,101755.25
2019-02-16T09:54:55.734Z,101753.53
2019-02-16T09:57:43.329Z,101750.41
2019-02-16T10:00:15.477Z,101749.63
2019-02-16T10:02:50.790Z,101762.67
2019-02-16T10:05:20.048Z,101759.09
2019-02-16T10:07:49.326Z,101764.42
2019-02-16T10:10:18.642Z,101758.78
2019-02-16T10:12:56.799Z,101762.00
2019-02-16T10:15:26.120Z,101760.13
2019-02-16T10:17:55.393Z,101756.53
2019-02-16T10:20:30.543Z,101763.85
2019-02-16T10:23:08.996Z,101762.03
2019-02-16T10:25:54.925Z,101757.26
2019-02-16T10:28:32.560Z,101761.85
2019-02-16T10:31:13.857Z,101753.69
2019-02-16T10:33:52.122Z,101759.20
2019-02-16T10:36:38.086Z,101756.66
2019-02-16T10:39:26.075Z,101753.66
2019-02-16T10:42:10.268Z,101755.30
2019-02-16T10:44:45.283Z,101765.01
2019-02-16T10:47:21.015Z,101757.78
2019-02-16T10:50:05.616Z,101755.54
2019-02-16T10:52:34.920Z,101748.49
2019-02-16T10:55:13.148Z,101749.16
2019-02-16T10:57:45.459Z,101741.94
2019-02-16T11:00:14.771Z,101746.38
2019-02-16T11:02:46.860Z,101738.16
2019-02-16T11:05:18.993Z,101741.59
2019-02-16T11:08:00.162Z,101736.86
2019-02-16T11:10:35.191Z,101742.41
2019-02-16T11:13:22.950Z,101736.45
2019-02-16T11:15:52.234Z,101725.46
2019-02-16T11:18:21.604Z,101727.64
2019-02-16T11:20:50.884Z,101720.59
2019-02-16T11:23:20.145Z,101712.69
2019-02-16T11:26:05.921Z,101704.41
2019-02-16T11:28:35.202Z,101706.30
2019-02-16T11:31:16.472Z,101706.52
2019-02-16T11:33:51.482Z,101702.22
2019-02-16T11:36:26.464Z,101697.16
2019-02-16T11:39:01.533Z,101687.90
2019-02-16T11:41:30.801Z,101694.60
2019-02-16T11:44:15.439Z,101689.38
2019-02-16T11:46:59.776Z,101694.23
2019-02-16T11:49:34.954Z,101696.81
2019-02-16T11:52:20.509Z,101691.99
2019-02-16T11:54:55.566Z,101695.33
2019-02-16T11:57:25.032Z,101689.22
2019-02-16T12:00:00.512Z,101685.17
2019-02-16T12:02:39.508Z,101683.67
2019-02-16T12:05:09.142Z,101679.10
2019-02-16T12:07:47.229Z,101680.98
2019-02-16T12:10:16.702Z,101679.38
2019-02-16T12:12:48.972Z,101677.75
2019-02-16T12:15:18.238Z,101670.80
2019-02-16T12:17:53.271Z,101667.02
2019-02-16T12:20:33.636Z,101659.41
2019-02-16T12:22:59.429Z,101658.19
2019-02-16T12:25:45.156Z,101649.72
2019-02-16T12:28:23.397Z,101649.28
2019-02-16T12:30:58.859Z,101650.79
2019-02-16T12:33:28.144Z,101645.20
2019-02-16T12:36:00.128Z,101644.36
2019-02-16T12:38:41.419Z,101646.22
2019-02-16T12:41:10.716Z,101643.70
2019-02-16T12:43:56.264Z,101641.62
2019-02-16T12:46:41.875Z,101638.77
2019-02-16T12:49:14.067Z,101629.98
2019-02-16T12:51:52.594Z,101620.21
2019-02-16T12:54:21.865Z,101610.69
2019-02-16T12:56:53.880Z,101612.28
2019-02-16T12:59:28.922Z,101599.67
2019-02-16T13:02:00.670Z,101598.80
2019-02-16T13:04:46.446Z,101596.17
2019-02-16T13:07:31.982Z,101587.02
2019-02-16T13:10:04.145Z,101587.06
2019-02-16T13:12:35.287Z,101579.86
2019-02-16T13:15:16.616Z,101591.27
2019-02-16T13:17:48.794Z,101586.95
2019-02-16T13:20:23.815Z,101580.27
2019-02-16T13:22:58.761Z,101585.45
2019-02-16T13:25:28.039Z,101579.02
2019-02-16T13:28:15.787Z,101577.80
2019-02-16T13:30:45.068Z,101568.25
2019-02-16T13:33:31.063Z,101562.43
2019-02-16T13:36:16.615Z,101562.22
2019-02-16T13:38:45.907Z,101558.34
2019-02-16T13:41:18.341Z,101554.64
2019-02-16T13:43:47.611Z,101551.19
2019-02-16T13:46:25.925Z,101554.91
2019-02-16T13:48:55.271Z,101556.88
2019-02-16T13:51:27.697Z,101547.59
2019-02-16T13:53:59.639Z,101546.59
2019-02-16T13:56:28.909Z,101545.12
2019-02-16T13:59:14.506Z,101546.66
2019-02-16T14:01:46.696Z,101555.97
2019-02-16T14:04:32.347Z,101558.79
2019-02-16T14:07:01.640Z,101559.52
2019-02-16T14:09:31.008Z,101554.68
2019-02-16T14:12:09.185Z,101546.61
2019-02-16T14:14:41.298Z,101553.32
2019-02-16T14:17:13.740Z,101554.55
2019-02-16T14:19:41.408Z,101551.56
2019-02-16T14:22:09.005Z,101549.45
2019-02-16T14:24:44.226Z,101547.12
2019-02-16T14:27:11.862Z,101540.80
2019-02-16T14:29:39.496Z,101537.55
2019-02-16T14:32:07.143Z,101537.20
2019-02-16T14:34:34.845Z,101536.71
2019-02-16T14:37:04.151Z,101530.26
2019-02-16T14:39:33.664Z,101539.27
2019-02-16T14:42:01.290Z,101530.91
2019-02-16T14:44:28.928Z,101528.84
2019-02-16T14:46:56.659Z,101529.64
2019-02-16T14:49:24.320Z,101537.55
2019-02-16T14:51:51.941Z,101535.66
2019-02-16T14:54:19.639Z,101537.78
2019-02-16T14:56:47.269Z,101535.80
2019-02-16T14:59:14.994Z,101527.05
2019-02-16T15:01:42.604Z,101528.11
2019-02-16T15:04:10.284Z,101525.02
2019-02-16T15:06:37.909Z,101520.41
2019-02-16T15:09:06.014Z,101521.20
2019-02-16T15:11:34.011Z,101516.90
2019-02-16T15:14:01.685Z,101515.75
2019-02-16T15:16:29.329Z,101519.31
2019-02-16T15:18:56.957Z,101514.97
2019-02-16T15:21:24.616Z,101521.11
2019-02-16T15:23:52.244Z,101506.23
2019-02-16T15:26:28.141Z,101512.19
2019-02-16T15:28:49.370Z,101509.47
2019-02-16T15:31:17.126Z,101506.84
2019-02-16T15:33:44.759Z,101514.57
2019-02-16T15:36:12.412Z,101501.52
2019-02-16T15:38:40.064Z,101501.47
2019-02-16T15:41:07.747Z,101500.98
2019-02-16T15:43:35.399Z,101501.86
2019-02-16T15:46:03.052Z,101497.03
2019-02-16T15:48:30.682Z,101494.22
2019-02-16T15:50:58.344Z,101496.08
2019-02-16T15:53:25.998Z,101496.02
2019-02-16T15:55:53.659Z,101498.34
2019-02-16T15:58:21.269Z,101490.11
2019-02-16T16:00:49.012Z,101487.05
2019-02-16T16:03:16.897Z,101489.83
2019-02-16T16:05:44.568Z,101484.77
2019-02-16T16:08:26.095Z,101481.52
2019-02-16T16:11:01.246Z,101481.13
2019-02-16T16:13:30.554Z,101483.27
2019-02-16T16:15:59.825Z,101486.70
2019-02-16T16:18:44.394Z,101488.97
2019-02-16T16:21:19.431Z,101492.80
2019-02-16T16:23:51.650Z,101490.40
2019-02-16T16:26:20.938Z,101494.48
2019-02-16T16:29:00.669Z,101501.37
2019-02-16T16:31:29.678Z,101497.68
2019-02-16T16:34:01.937Z,101499.73
2019-02-16T16:36:34.139Z,101500.54
2019-02-16T16:39:03.412Z,101503.58
2019-02-16T16:41:32.688Z,101505.16
2019-02-16T16:44:10.747Z,101500.74
2019-02-16T16:46:48.930Z,101498.44
2019-02-16T16:49:20.980Z,101502.06
2019-02-16T16:51:50.278Z,101494.75
2019-02-16T16:54:25.519Z,101496.24
2019-02-16T16:56:57.767Z,101496.50
2019-02-16T16:59:42.350Z,101497.77
2019-02-16T17:02:11.630Z,101492.12
2019-02-16T17:04:46.748Z,101494.55
2019-02-16T17:07:22.106Z,101496.77
2019-02-16T17:09:51.401Z,101491.72
2019-02-16T17:12:23.374Z,101489.23
2019-02-16T17:15:01.387Z,101500.70
2019-02-16T17:17:30.686Z,101495.05
2019-02-16T17:19:59.957Z,101495.91
2019-02-16T17:22:29.243Z,101493.88
2019-02-16T17:25:14.014Z,101507.46
2019-02-16T17:27:46.282Z,101507.30
2019-02-16T17:30:34.952Z,101508.80
2019-02-16T17:33:09.923Z,101516.36
2019-02-16T17:35:39.198Z,101514.75
2019-02-16T17:38:24.765Z,101518.80
2019-02-16T17:41:10.475Z,101519.66
2019-02-16T17:43:48.723Z,101521.38
2019-02-16T17:46:34.446Z,101523.30
2019-02-16T17:49:03.697Z,101525.95
2019-02-16T17:51:32.975Z,101523.48
2019-02-16T17:54:08.063Z,101525.77
2019-02-16T17:56:46.705Z,101524.91
2019-02-16T17:59:15.721Z,101528.73
2019-02-16T18:01:44.973Z,101527.25
2019-02-16T18:04:14.262Z,101527.14
2019-02-16T18:06:46.510Z,101534.42
2019-02-16T18:09:21.502Z,101527.58
2019-02-16T18:12:02.943Z,101529.92
2019-02-16T18:14:37.745Z,101526.57
2019-02-16T18:17:13.086Z,101528.55
2019-02-16T18:19:44.886Z,101525.02
2019-02-16T18:22:23.197Z,101527.11
2019-02-16T18:25:10.313Z,101523.89
2019-02-16T18:27:51.921Z,101521.16
2019-02-16T18:30:23.669Z,101518.93
2019-02-16T18:32:59.045Z,101516.28
2019-02-16T18:35:40.331Z,101517.08
2019-02-16T18:38:18.324Z,101510.03
2019-02-16T18:40:53.600Z,101507.14
2019-02-16T18:43:25.840Z,101504.94
2019-02-16T18:46:11.581Z,101500.11
2019-02-16T18:48:43.527Z,101499.29
2019-02-16T18:51:18.845Z,101501.14
2019-02-16T18:53:48.141Z,101498.80
2019-02-16T18:56:35.464Z,101500.79
2019-02-16T18:59:07.226Z,101494.03
2019-02-16T19:01:36.501Z,101494.32
2019-02-16T19:04:05.859Z,101491.54
2019-02-16T19:06:41.185Z,101494.45
2019-02-16T19:09:10.453Z,101494.37
2019-02-16T19:11:39.739Z,101496.47
2019-02-16T19:14:09.038Z,101504.20
2019-02-16T19:16:41.626Z,101504.42
2019-02-16T19:19:10.875Z,101497.38
2019-02-16T19:21:56.405Z,101497.70
2019-02-16T19:24:28.683Z,101502.75
2019-02-16T19:27:03.878Z,101499.61
2019-02-16T19:29:35.921Z,101491.97
2019-02-16T19:32:05.182Z,101490.61
2019-02-16T19:34:40.330Z,101498.79
2019-02-16T19:37:12.046Z,101500.84
2019-02-16T19:39:43.988Z,101501.71
2019-02-16T19:42:16.368Z,101492.03
2019-02-16T19:44:45.652Z,101492.33
2019-02-16T19:47:31.453Z,101489.59
2019-02-16T19:50:17.097Z,101488.16
2019-02-16T19:52:52.137Z,101486.03
2019-02-16T19:55:38.013Z,101480.98
2019-02-16T19:58:16.032Z,101482.62
2019-02-16T20:00:47.793Z,101484.83
2019-02-16T20:03:23.006Z,101481.39
2019-02-16T20:05:56.168Z,101489.52
2019-02-16T20:08:25.540Z,101486.58
2019-02-16T20:11:12.025Z,101485.36
2019-02-16T20:13:41.545Z,101479.02
2019-02-16T20:16:13.489Z,101477.44
2019-02-16T20:18:45.488Z,101481.25
2019-02-16T20:21:23.723Z,101483.11
2019-02-16T20:23:55.747Z,101481.12
2019-02-16T20:26:25.029Z,101484.06
2019-02-16T20:28:56.985Z,101489.73
2019-02-16T20:31:28.948Z,101484.94
2019-02-16T20:33:58.218Z,101494.70
2019-02-16T20:36:42.625Z,101488.29
2019-02-16T20:39:14.549Z,101485.42
2019-02-16T20:41:46.871Z,101487.34
2019-02-16T20:44:24.904Z,101475.95
2019-02-16T20:46:54.183Z,101478.34
2019-02-16T20:49:39.964Z,101479.78
2019-02-16T20:52:09.233Z,101476.84
2019-02-16T20:54:44.289Z,101476.91
2019-02-16T20:57:13.539Z,101472.34
2019-02-16T20:59:42.824Z,101469.48
2019-02-16T21:02:17.891Z,101473.70
2019-02-16T21:04:52.916Z,101468.77
2019-02-16T21:07:27.941Z,101462.58
2019-02-16T21:10:00.311Z,101466.67
2019-02-16T21:12:29.670Z,101465.58
2019-02-16T21:14:58.955Z,101468.72
2019-02-16T21:17:43.534Z,101469.81
2019-02-16T21:20:15.484Z,101473.77
2019-02-16T21:22:47.468Z,101475.31
2019-02-16T21:25:16.768Z,101471.63
2019-02-16T21:27:57.869Z,101472.47
2019-02-16T21:30:36.440Z,101480.16
2019-02-16T21:33:08.492Z,101472.34
2019-02-16T21:35:54.119Z,101479.94
2019-02-16T21:38:32.105Z,101475.45
2019-02-16T21:41:01.389Z,101475.58
2019-02-16T21:43:33.477Z,101474.08
2019-02-16T21:46:08.465Z,101471.76
2019-02-16T21:48:40.498Z,101477.43
2019-02-16T21:51:21.392Z,101478.57
2019-02-16T21:54:02.714Z,101485.12
2019-02-16T21:56:50.495Z,101475.77
2019-02-16T21:59:28.760Z,101473.39
2019-02-16T22:02:00.696Z,101467.47
2019-02-16T22:04:39.112Z,101467.86
2019-02-16T22:07:24.818Z,101471.33
2019-02-16T22:10:12.310Z,101464.64
2019-02-16T22:12:53.868Z,101460.66
2019-02-16T22:15:21.510Z,101464.52
2019-02-16T22:17:49.170Z,101464.52
2019-02-16T22:20:16.809Z,101472.16
2019-02-16T22:22:44.438Z,101464.60
2019-02-16T22:25:12.100Z,101465.70
2019-02-16T22:27:39.736Z,101453.80
2019-02-16T22:30:08.976Z,101467.41
2019-02-16T22:32:36.588Z,101465.70
2019-02-16T22:35:05.079Z,101457.79
2019-02-16T22:37:32.752Z,101461.83
2019-02-16T22:40:00.386Z,101461.61
2019-02-16T22:42:27.998Z,101461.05
2019-02-16T22:44:55.650Z,101461.67
2019-02-16T22:47:23.278Z,101459.95
2019-02-16T22:49:50.924Z,101460.05
2019-02-16T22:52:18.566Z,101457.72
2019-02-16T22:54:46.202Z,101454.21
2019-02-16T22:57:13.840Z,101459.80
2019-02-16T22:59:41.487Z,101450.20
2019-02-16T23:02:09.554Z,101452.14
2019-02-16T23:04:37.213Z,101456.23
2019-02-16T23:07:04.906Z,101457.86
2019-02-16T23:09:32.565Z,101459.92
2019-02-16T23:12:00.178Z,101460.19
2019-02-16T23:14:28.076Z,101467.25
2019-02-16T23:16:55.734Z,101463.02
2019-02-16T23:19:23.356Z,101463.45
2019-02-16T23:21:50.999Z,101464.28
2019-02-16T23:24:18.634Z,101469.20
2019-02-16T23:26:46.290Z,101472.27
2019-02-16T23:29:13.912Z,101469.20
2019-02-16T23:31:41.570Z,101475.36
2019-02-16T23:34:09.364Z,101460.06
2019-02-16T23:36:36.989Z,101463.80
2019-02-16T23:39:06.293Z,101463.95
2019-02-16T23:41:33.916Z,101461.70
2019-02-16T23:44:01.555Z,101462.80
2019-02-16T23:46:29.206Z,101461.30
2019-02-16T23:48:56.856Z,101458.78
2019-02-16T23:51:24.510Z,101457.28
2019-02-16T23:53:52.140Z,101454.69
2019-02-16T23:56:19.791Z,101459.52
2019-02-16T23:58:49.580Z,101457.88
